createdAt,value
2019-05-11T00:01:34.170Z,86.62
2019-05-11T00:04:03.647Z,87.16
2019-05-11T00:06:33.088Z,86.73
2019-05-11T00:09:02.496Z,86.79
2019-05-11T00:11:32.111Z,86.84
2019-05-11T00:14:01.521Z,87.96
2019-05-11T00:16:30.953Z,87.96
2019-05-11T00:19:00.342Z,88.50
2019-05-11T00:21:29.801Z,88.90
2019-05-11T00:23:59.215Z,88.13
2019-05-11T00:26:30.365Z,89.08
2019-05-11T00:29:01.284Z,88.37
2019-05-11T00:31:30.731Z,88.21
2019-05-11T00:34:00.132Z,88.15
2019-05-11T00:36:29.693Z,88.79
2019-05-11T00:38:59.090Z,88.28
2019-05-11T00:41:30.403Z,88.44
2019-05-11T00:43:59.973Z,88.45
2019-05-11T00:46:29.399Z,88.82
2019-05-11T00:48:58.798Z,89.07
2019-05-11T00:51:28.408Z,88.90
2019-05-11T00:53:57.876Z,88.73
2019-05-11T00:56:27.309Z,89.03
2019-05-11T00:58:56.755Z,88.63
2019-05-11T01:01:26.200Z,89.06
2019-05-11T01:03:55.612Z,89.46
2019-05-11T01:06:25.060Z,89.37
2019-05-11T01:08:54.451Z,89.17
2019-05-11T01:11:23.983Z,89.48
2019-05-11T01:13:54.950Z,89.11
2019-05-11T01:16:24.540Z,90.14
2019-05-11T01:18:53.953Z,89.79
2019-05-11T01:21:23.389Z,90.09
2019-05-11T01:23:52.883Z,90.05
2019-05-11T01:26:22.344Z,90.38
2019-05-11T01:28:51.745Z,90.14
2019-05-11T01:31:21.193Z,90.23
2019-05-11T01:33:50.595Z,90.82
2019-05-11T01:36:20.175Z,91.04
2019-05-11T01:38:49.618Z,90.17
2019-05-11T01:41:19.120Z,89.47
2019-05-11T01:43:50.087Z,89.84
2019-05-11T01:46:19.516Z,89.86
2019-05-11T01:48:48.995Z,90.35
2019-05-11T01:51:18.780Z,89.47
2019-05-11T01:53:48.572Z,89.39
2019-05-11T01:56:18.007Z,89.70
2019-05-11T01:58:47.530Z,89.88
2019-05-11T02:01:16.992Z,89.77
2019-05-11T02:03:46.520Z,89.87
2019-05-11T02:06:15.950Z,90.04
2019-05-11T02:08:45.391Z,89.75
2019-05-11T02:11:16.292Z,89.69
2019-05-11T02:13:45.938Z,90.15
2019-05-11T02:16:15.563Z,89.46
2019-05-11T02:18:45.477Z,89.79
2019-05-11T02:21:14.924Z,89.41
2019-05-11T02:23:44.372Z,89.23
2019-05-11T02:26:13.814Z,89.22
2019-05-11T02:28:43.254Z,88.91
2019-05-11T02:31:12.692Z,89.86
2019-05-11T02:33:42.132Z,89.29
2019-05-11T02:36:11.548Z,89.64
2019-05-11T02:38:40.969Z,89.42
2019-05-11T02:41:10.370Z,89.18
2019-05-11T02:43:40.353Z,88.50
2019-05-11T02:46:10.001Z,88.98
2019-05-11T02:48:39.436Z,89.82
2019-05-11T02:51:09.775Z,90.09
2019-05-11T02:53:40.567Z,89.95
2019-05-11T02:56:10.093Z,89.48
2019-05-11T02:58:39.535Z,89.15
2019-05-11T03:01:08.975Z,89.33
2019-05-11T03:03:38.597Z,89.19
2019-05-11T03:06:08.015Z,89.00
2019-05-11T03:08:39.993Z,88.60
2019-05-11T03:11:09.506Z,88.80
2019-05-11T03:13:38.936Z,89.23
2019-05-11T03:16:08.390Z,88.93
2019-05-11T03:18:39.400Z,88.57
2019-05-11T03:21:08.847Z,87.93
2019-05-11T03:23:38.376Z,88.22
2019-05-11T03:26:07.890Z,87.68
2019-05-11T03:28:37.290Z,88.62
2019-05-11T03:31:07.245Z,88.56
2019-05-11T03:33:36.657Z,89.14
2019-05-11T03:36:06.223Z,88.85
2019-05-11T03:38:35.662Z,88.81
2019-05-11T03:41:05.110Z,88.90
2019-05-11T03:43:34.547Z,89.10
2019-05-11T03:46:04.149Z,88.98
2019-05-11T03:48:33.557Z,88.99
2019-05-11T03:51:03.096Z,88.93
2019-05-11T03:53:32.585Z,88.84
2019-05-11T03:56:02.132Z,88.51
2019-05-11T03:58:33.157Z,88.54
2019-05-11T04:01:02.732Z,88.66
2019-05-11T04:03:32.162Z,88.74
2019-05-11T04:06:01.640Z,89.11
2019-05-11T04:08:31.113Z,89.21
2019-05-11T04:11:00.824Z,89.96
2019-05-11T04:13:30.370Z,90.18
2019-05-11T04:15:59.820Z,90.01
2019-05-11T04:18:29.260Z,90.66
2019-05-11T04:20:58.682Z,90.40
2019-05-11T04:23:28.162Z,89.72
2019-05-11T04:25:57.587Z,89.78
2019-05-11T04:28:27.905Z,88.65
2019-05-11T04:30:57.391Z,88.72
2019-05-11T04:33:26.826Z,88.86
2019-05-11T04:35:56.325Z,89.20
2019-05-11T04:38:25.751Z,89.57
2019-05-11T04:40:55.228Z,89.44
2019-05-11T04:43:24.681Z,89.00
2019-05-11T04:45:54.140Z,88.60
2019-05-11T04:48:23.566Z,88.59
2019-05-11T04:50:53.086Z,88.16
2019-05-11T04:53:22.483Z,87.96
2019-05-11T04:55:52.046Z,87.96
2019-05-11T04:58:21.522Z,87.55
2019-05-11T05:00:51.250Z,87.18
2019-05-11T05:03:20.657Z,87.44
2019-05-11T05:05:50.158Z,87.44
2019-05-11T05:08:21.294Z,87.57
2019-05-11T05:10:52.449Z,87.30
2019-05-11T05:13:23.415Z,86.97
2019-05-11T05:15:53.074Z,87.01
2019-05-11T05:18:22.484Z,87.60
2019-05-11T05:20:51.940Z,87.51
2019-05-11T05:23:21.351Z,87.57
2019-05-11T05:25:50.795Z,87.96
2019-05-11T05:28:20.277Z,87.70
2019-05-11T05:30:49.717Z,87.33
2019-05-11T05:33:19.201Z,86.26
2019-05-11T05:35:48.650Z,86.13
2019-05-11T05:38:18.054Z,86.06
2019-05-11T05:40:47.534Z,85.31
2019-05-11T05:43:26.204Z,84.85
2019-05-11T05:45:48.225Z,81.02
2019-05-11T05:48:17.652Z,80.83
2019-05-11T05:50:47.070Z,81.29
2019-05-11T05:53:16.477Z,77.19
2019-05-11T05:55:45.936Z,76.86
2019-05-11T05:58:15.374Z,74.37
2019-05-11T06:00:44.895Z,73.44
2019-05-11T06:03:14.543Z,74.59
2019-05-11T06:05:44.041Z,73.29
2019-05-11T06:08:13.572Z,73.23
2019-05-11T06:10:43.006Z,73.16
2019-05-11T06:13:12.568Z,73.88
2019-05-11T06:15:42.237Z,68.87
2019-05-11T06:18:11.668Z,69.37
2019-05-11T06:20:41.073Z,71.57
2019-05-11T06:23:10.607Z,68.97
2019-05-11T06:25:40.021Z,66.38
2019-05-11T06:28:09.454Z,68.01
2019-05-11T06:30:39.067Z,69.11
2019-05-11T06:33:08.501Z,66.58
2019-05-11T06:35:37.935Z,65.65
2019-05-11T06:38:07.339Z,66.61
2019-05-11T06:40:36.844Z,66.38
2019-05-11T06:43:06.315Z,64.79
2019-05-11T06:45:35.750Z,64.82
2019-05-11T06:48:05.150Z,64.37
2019-05-11T06:50:34.660Z,66.40
2019-05-11T06:53:04.065Z,66.05
2019-05-11T06:55:33.509Z,67.93
2019-05-11T06:58:02.916Z,62.27
2019-05-11T07:00:33.979Z,64.24
2019-05-11T07:03:03.409Z,63.63
2019-05-11T07:05:32.830Z,63.98
2019-05-11T07:08:05.211Z,62.83
2019-05-11T07:10:34.656Z,65.49
2019-05-11T07:13:04.106Z,64.60
2019-05-11T07:15:34.497Z,63.63
2019-05-11T07:18:03.929Z,63.21
2019-05-11T07:20:49.170Z,62.60
2019-05-11T07:23:06.095Z,66.77
2019-05-11T07:25:35.907Z,61.03
2019-05-11T07:28:05.347Z,62.88
2019-05-11T07:30:34.836Z,62.31
2019-05-11T07:33:04.377Z,63.73
2019-05-11T07:35:34.494Z,63.35
2019-05-11T07:38:04.070Z,63.01
2019-05-11T07:40:33.511Z,64.63
2019-05-11T07:43:06.325Z,61.66
2019-05-11T07:45:34.151Z,63.27
2019-05-11T07:48:03.566Z,61.10
2019-05-11T07:50:32.995Z,62.16
2019-05-11T07:53:02.404Z,62.81
2019-05-11T07:55:31.935Z,61.04
2019-05-11T07:58:01.347Z,60.09
2019-05-11T08:00:30.776Z,61.78
2019-05-11T08:03:00.226Z,62.41
2019-05-11T08:05:29.822Z,61.34
2019-05-11T08:07:59.686Z,61.72
2019-05-11T08:10:29.172Z,61.70
2019-05-11T08:12:58.958Z,60.34
2019-05-11T08:15:30.211Z,61.12
2019-05-11T08:17:59.651Z,58.99
2019-05-11T08:20:29.139Z,62.01
2019-05-11T08:22:59.394Z,58.57
2019-05-11T08:25:28.897Z,59.42
2019-05-11T08:27:58.925Z,58.07
2019-05-11T08:30:28.840Z,61.61
2019-05-11T08:32:58.454Z,59.91
2019-05-11T08:35:31.131Z,58.16
2019-05-11T08:37:59.130Z,58.36
2019-05-11T08:40:28.993Z,59.74
2019-05-11T08:42:58.518Z,60.80
2019-05-11T08:45:28.247Z,60.16
2019-05-11T08:47:58.140Z,60.73
2019-05-11T08:50:28.103Z,60.32
2019-05-11T08:52:58.219Z,57.28
2019-05-11T08:55:29.029Z,59.45
2019-05-11T08:57:58.814Z,57.77
2019-05-11T09:00:28.558Z,59.48
2019-05-11T09:02:58.482Z,56.29
2019-05-11T09:05:28.266Z,57.21
2019-05-11T09:07:59.316Z,57.15
2019-05-11T09:10:28.743Z,55.21
2019-05-11T09:12:59.084Z,53.83
2019-05-11T09:15:36.394Z,54.15
2019-05-11T09:17:59.999Z,56.35
2019-05-11T09:20:29.438Z,56.66
2019-05-11T09:22:59.157Z,52.95
2019-05-11T09:25:28.787Z,54.76
2019-05-11T09:27:58.857Z,53.62
2019-05-11T09:30:28.922Z,52.48
2019-05-11T09:32:58.626Z,51.50
2019-05-11T09:35:29.174Z,52.28
2019-05-11T09:37:59.094Z,52.66
2019-05-11T09:40:28.671Z,53.57
2019-05-11T09:42:58.612Z,56.11
2019-05-11T09:45:28.357Z,52.87
2019-05-11T09:47:58.369Z,50.90
2019-05-11T09:50:28.540Z,50.66
2019-05-11T09:52:58.272Z,49.81
2019-05-11T09:55:28.411Z,54.15
2019-05-11T09:57:58.180Z,49.62
2019-05-11T10:00:28.740Z,49.32
2019-05-11T10:02:58.348Z,52.05
2019-05-11T10:05:28.640Z,50.84
2019-05-11T10:07:59.033Z,48.83
2019-05-11T10:10:29.068Z,48.99
2019-05-11T10:12:59.137Z,53.71
2019-05-11T10:15:28.787Z,48.50
2019-05-11T10:17:59.014Z,47.91
2019-05-11T10:20:28.853Z,47.28
2019-05-11T10:22:58.403Z,48.53
2019-05-11T10:25:28.682Z,51.52
2019-05-11T10:27:58.772Z,53.73
2019-05-11T10:30:28.873Z,51.96
2019-05-11T10:32:58.310Z,54.64
2019-05-11T10:35:28.817Z,50.73
2019-05-11T10:37:58.515Z,54.02
2019-05-11T10:40:28.366Z,53.79
2019-05-11T10:42:58.950Z,52.95
2019-05-11T10:45:28.714Z,54.58
2019-05-11T10:48:00.996Z,53.62
2019-05-11T10:50:29.543Z,53.47
2019-05-11T10:52:59.236Z,52.58
2019-05-11T10:55:28.846Z,49.99
2019-05-11T10:57:58.811Z,51.69
2019-05-11T11:00:28.498Z,51.16
2019-05-11T11:02:58.392Z,51.84
2019-05-11T11:05:28.150Z,51.08
2019-05-11T11:07:59.130Z,47.67
2019-05-11T11:10:28.855Z,49.29
2019-05-11T11:12:58.521Z,48.60
2019-05-11T11:15:28.862Z,50.24
2019-05-11T11:17:58.432Z,50.27
2019-05-11T11:20:28.210Z,48.49
2019-05-11T11:22:58.545Z,47.79
2019-05-11T11:25:28.556Z,47.42
2019-05-11T11:27:58.130Z,47.62
2019-05-11T11:30:28.636Z,47.59
2019-05-11T11:32:58.847Z,47.21
2019-05-11T11:35:28.567Z,47.07
2019-05-11T11:37:58.572Z,45.84
2019-05-11T11:40:28.361Z,48.31
2019-05-11T11:42:58.273Z,47.12
2019-05-11T11:45:28.743Z,48.02
2019-05-11T11:47:58.447Z,46.94
2019-05-11T11:50:28.481Z,48.34
2019-05-11T11:52:58.074Z,49.97
2019-05-11T11:55:28.965Z,46.66
2019-05-11T11:57:59.010Z,47.41
2019-05-11T12:00:28.988Z,48.49
2019-05-11T12:02:58.568Z,47.06
2019-05-11T12:05:28.425Z,50.56
2019-05-11T12:07:59.826Z,49.94
2019-05-11T12:10:29.309Z,49.12
2019-05-11T12:13:00.415Z,51.57
2019-05-11T12:15:31.371Z,51.61
2019-05-11T12:18:00.957Z,52.18
2019-05-11T12:20:30.398Z,49.26
2019-05-11T12:22:59.977Z,50.29
2019-05-11T12:25:29.564Z,48.59
2019-05-11T12:27:59.007Z,45.53
2019-05-11T12:30:28.712Z,49.19
2019-05-11T12:32:58.121Z,44.89
2019-05-11T12:35:28.401Z,46.56
2019-05-11T12:37:58.734Z,45.87
2019-05-11T12:40:28.530Z,48.47
2019-05-11T12:42:59.066Z,46.85
2019-05-11T12:45:29.573Z,47.23
2019-05-11T12:47:59.175Z,47.24
2019-05-11T12:50:28.828Z,44.56
2019-05-11T12:52:58.883Z,45.08
2019-05-11T12:55:28.857Z,43.95
2019-05-11T12:57:58.380Z,47.78
2019-05-11T13:00:31.138Z,44.76
2019-05-11T13:02:58.931Z,46.12
2019-05-11T13:05:28.714Z,43.95
2019-05-11T13:07:58.819Z,44.58
2019-05-11T13:10:28.442Z,45.02
2019-05-11T13:12:58.312Z,46.05
2019-05-11T13:15:28.290Z,46.50
2019-05-11T13:17:58.262Z,45.27
2019-05-11T13:20:28.814Z,47.47
2019-05-11T13:22:58.881Z,47.31
2019-05-11T13:25:28.470Z,46.61
2019-05-11T13:27:58.239Z,46.71
2019-05-11T13:30:29.190Z,44.17
2019-05-11T13:32:58.678Z,44.14
2019-05-11T13:35:28.672Z,43.89
2019-05-11T13:37:58.620Z,46.22
2019-05-11T13:40:29.677Z,46.89
2019-05-11T13:42:59.086Z,47.43
2019-05-11T13:45:29.422Z,46.03
2019-05-11T13:47:59.452Z,45.44
2019-05-11T13:50:29.691Z,42.65
2019-05-11T13:52:59.336Z,44.58
2019-05-11T13:55:28.854Z,44.73
2019-05-11T13:57:58.263Z,46.78
2019-05-11T14:00:28.866Z,45.04
2019-05-11T14:03:00.200Z,42.66
2019-05-11T14:05:29.702Z,45.18
2019-05-11T14:07:59.183Z,46.64
2019-05-11T14:10:28.636Z,46.77
2019-05-11T14:12:59.589Z,47.83
2019-05-11T14:15:29.037Z,49.92
2019-05-11T14:18:08.189Z,51.35
2019-05-11T14:20:29.601Z,51.18
2019-05-11T14:22:59.013Z,52.14
2019-05-11T14:25:28.547Z,53.84
2019-05-11T14:27:59.572Z,54.04
2019-05-11T14:30:29.380Z,53.34
2019-05-11T14:32:58.858Z,53.09
2019-05-11T14:35:28.484Z,52.43
2019-05-11T14:37:58.729Z,53.38
2019-05-11T14:40:30.095Z,53.95
2019-05-11T14:42:59.503Z,52.76
2019-05-11T14:45:29.075Z,52.80
2019-05-11T14:47:58.498Z,48.69
2019-05-11T14:50:28.305Z,52.17
2019-05-11T14:52:58.218Z,49.83
2019-05-11T14:55:28.928Z,48.58
2019-05-11T14:57:58.591Z,50.21
2019-05-11T15:00:29.043Z,50.23
2019-05-11T15:02:58.855Z,51.67
2019-05-11T15:05:31.535Z,50.57
2019-05-11T15:08:01.776Z,49.65
2019-05-11T15:10:31.830Z,53.46
2019-05-11T15:13:01.247Z,55.17
2019-05-11T15:15:30.701Z,55.39
2019-05-11T15:18:00.201Z,54.85
2019-05-11T15:20:29.647Z,56.10
2019-05-11T15:22:59.048Z,55.09
2019-05-11T15:25:29.015Z,56.31
2019-05-11T15:27:58.587Z,53.74
2019-05-11T15:30:29.647Z,51.78
2019-05-11T15:32:59.043Z,48.66
2019-05-11T15:35:29.036Z,50.38
2019-05-11T15:37:58.462Z,51.05
2019-05-11T15:40:28.140Z,51.40
2019-05-11T15:42:58.596Z,52.25
2019-05-11T15:45:28.492Z,50.31
2019-05-11T15:47:58.919Z,52.26
2019-05-11T15:50:29.211Z,51.36
2019-05-11T15:52:58.989Z,51.32
2019-05-11T15:55:28.610Z,49.01
2019-05-11T15:57:58.096Z,48.37
2019-05-11T16:00:27.786Z,48.24
2019-05-11T16:02:57.854Z,47.93
2019-05-11T16:05:28.563Z,48.29
2019-05-11T16:08:01.367Z,48.53
2019-05-11T16:10:29.189Z,47.24
2019-05-11T16:12:58.791Z,46.92
2019-05-11T16:15:28.260Z,44.28
2019-05-11T16:17:57.895Z,46.55
2019-05-11T16:20:28.569Z,46.61
2019-05-11T16:22:58.433Z,45.62
2019-05-11T16:25:28.148Z,45.49
2019-05-11T16:27:57.684Z,48.30
2019-05-11T16:30:29.107Z,46.37
2019-05-11T16:32:58.534Z,46.68
2019-05-11T16:35:29.533Z,45.88
2019-05-11T16:37:59.410Z,48.24
2019-05-11T16:40:29.563Z,48.84
2019-05-11T16:42:59.116Z,49.03
2019-05-11T16:45:28.598Z,50.98
2019-05-11T16:47:58.819Z,51.14
2019-05-11T16:50:28.448Z,50.43
2019-05-11T16:52:58.652Z,52.18
2019-05-11T16:55:28.192Z,53.05
2019-05-11T16:57:58.765Z,55.46
2019-05-11T17:00:28.355Z,55.30
2019-05-11T17:02:57.844Z,54.95
2019-05-11T17:05:33.453Z,53.99
2019-05-11T17:07:58.855Z,54.02
2019-05-11T17:10:28.580Z,52.45
2019-05-11T17:12:58.210Z,52.51
2019-05-11T17:15:28.922Z,52.63
2019-05-11T17:17:58.836Z,53.70
2019-05-11T17:20:29.886Z,55.12
2019-05-11T17:22:59.301Z,56.29
2019-05-11T17:25:30.281Z,55.44
2019-05-11T17:27:59.714Z,55.74
2019-05-11T17:30:29.302Z,55.69
2019-05-11T17:32:59.343Z,56.64
2019-05-11T17:35:28.939Z,56.93
2019-05-11T17:37:58.337Z,56.40
2019-05-11T17:40:28.520Z,57.16
2019-05-11T17:42:58.566Z,57.62
2019-05-11T17:45:28.219Z,57.82
2019-05-11T17:47:58.334Z,59.40
2019-05-11T17:50:28.349Z,57.87
2019-05-11T17:52:57.951Z,55.92
2019-05-11T17:55:28.664Z,55.82
2019-05-11T17:57:58.452Z,56.05
2019-05-11T18:00:28.349Z,56.94
2019-05-11T18:02:58.386Z,55.86
2019-05-11T18:05:28.054Z,54.11
2019-05-11T18:07:58.022Z,55.82
2019-05-11T18:10:28.341Z,55.15
2019-05-11T18:12:57.945Z,56.67
2019-05-11T18:15:27.411Z,57.25
2019-05-11T18:17:58.787Z,59.23
2019-05-11T18:20:28.707Z,60.02
2019-05-11T18:22:58.772Z,59.76
2019-05-11T18:25:28.904Z,59.83
2019-05-11T18:27:58.344Z,59.53
2019-05-11T18:30:29.323Z,60.57
2019-05-11T18:32:59.593Z,59.36
2019-05-11T18:35:29.249Z,59.67
2019-05-11T18:37:58.653Z,58.57
2019-05-11T18:40:28.681Z,59.89
2019-05-11T18:42:58.193Z,60.31
2019-05-11T18:45:28.733Z,60.27
2019-05-11T18:47:58.318Z,60.49
2019-05-11T18:50:31.045Z,59.82
2019-05-11T18:52:58.852Z,60.69
2019-05-11T18:55:29.944Z,61.12
2019-05-11T18:57:59.368Z,61.21
2019-05-11T19:00:29.176Z,62.30
2019-05-11T19:02:58.581Z,62.47
2019-05-11T19:05:29.139Z,63.15
2019-05-11T19:07:58.699Z,62.02
2019-05-11T19:10:28.139Z,62.74
2019-05-11T19:12:58.921Z,63.07
2019-05-11T19:15:28.649Z,64.26
2019-05-11T19:17:58.223Z,64.68
2019-05-11T19:20:28.475Z,65.21
2019-05-11T19:22:58.971Z,63.66
2019-05-11T19:25:28.735Z,63.65
2019-05-11T19:27:58.913Z,65.27
2019-05-11T19:30:28.873Z,64.52
2019-05-11T19:32:58.989Z,64.85
2019-05-11T19:35:28.804Z,65.33
2019-05-11T19:37:58.384Z,64.31
2019-05-11T19:40:27.828Z,64.61
2019-05-11T19:42:59.001Z,63.34
2019-05-11T19:45:29.583Z,62.49
2019-05-11T19:48:02.523Z,63.22
2019-05-11T19:50:32.007Z,62.80
2019-05-11T19:53:03.074Z,63.19
2019-05-11T19:55:32.666Z,62.28
2019-05-11T19:58:02.806Z,62.26
2019-05-11T20:00:32.248Z,62.67
2019-05-11T20:03:02.324Z,62.37
2019-05-11T20:05:33.350Z,61.41
2019-05-11T20:08:02.751Z,61.83
2019-05-11T20:10:32.227Z,62.39
2019-05-11T20:13:01.719Z,63.23
2019-05-11T20:15:31.143Z,63.98
2019-05-11T20:18:00.618Z,64.40
2019-05-11T20:20:30.047Z,65.01
2019-05-11T20:22:59.647Z,65.20
2019-05-11T20:25:30.740Z,65.02
2019-05-11T20:28:00.289Z,64.95
2019-05-11T20:30:29.862Z,63.70
2019-05-11T20:32:59.290Z,64.57
2019-05-11T20:35:32.577Z,63.64
2019-05-11T20:38:02.223Z,62.82
2019-05-11T20:40:31.726Z,64.24
2019-05-11T20:43:01.433Z,63.80
2019-05-11T20:45:30.879Z,64.15
2019-05-11T20:48:00.311Z,64.50
2019-05-11T20:50:29.879Z,64.16
2019-05-11T20:52:59.326Z,63.65
2019-05-11T20:55:28.736Z,63.99
2019-05-11T20:57:58.463Z,63.30
2019-05-11T21:00:28.376Z,62.16
2019-05-11T21:02:58.851Z,61.77
2019-05-11T21:05:28.577Z,62.47
2019-05-11T21:07:58.043Z,62.27
2019-05-11T21:10:28.171Z,62.88
2019-05-11T21:12:57.953Z,62.53
2019-05-11T21:15:28.095Z,63.76
2019-05-11T21:17:58.635Z,64.22
2019-05-11T21:20:28.902Z,64.21
2019-05-11T21:22:58.505Z,64.77
2019-05-11T21:25:28.776Z,63.94
2019-05-11T21:28:00.241Z,63.27
2019-05-11T21:30:29.851Z,64.69
2019-05-11T21:32:59.253Z,64.84
2019-05-11T21:35:28.695Z,64.58
2019-05-11T21:37:58.263Z,65.88
2019-05-11T21:40:31.422Z,66.16
2019-05-11T21:43:00.385Z,66.72
2019-05-11T21:45:29.889Z,66.76
2019-05-11T21:47:59.293Z,67.58
2019-05-11T21:50:28.794Z,67.58
2019-05-11T21:52:58.924Z,68.85
2019-05-11T21:55:29.321Z,69.45
2019-05-11T21:57:58.916Z,69.81
2019-05-11T22:00:30.481Z,70.05
2019-05-11T22:03:02.910Z,70.66
2019-05-11T22:05:32.446Z,70.70
2019-05-11T22:08:01.849Z,70.46
2019-05-11T22:10:31.304Z,70.05
2019-05-11T22:13:00.710Z,70.47
2019-05-11T22:15:30.970Z,69.49
2019-05-11T22:18:00.780Z,69.45
2019-05-11T22:20:30.218Z,69.41
2019-05-11T22:22:59.663Z,69.53
2019-05-11T22:25:29.104Z,69.80
2019-05-11T22:27:58.554Z,69.98
2019-05-11T22:30:28.061Z,70.20
2019-05-11T22:32:58.275Z,69.44
2019-05-11T22:35:28.669Z,69.72
2019-05-11T22:37:58.288Z,69.71
2019-05-11T22:40:28.216Z,69.22
2019-05-11T22:43:01.134Z,69.13
2019-05-11T22:45:29.139Z,69.23
2019-05-11T22:47:58.762Z,69.03
2019-05-11T22:50:29.156Z,68.14
2019-05-11T22:52:58.737Z,69.23
2019-05-11T22:55:28.245Z,69.46
2019-05-11T22:57:57.999Z,70.21
2019-05-11T23:00:30.661Z,71.20
2019-05-11T23:03:01.636Z,71.05
2019-05-11T23:05:31.086Z,71.82
2019-05-11T23:08:00.645Z,70.85
2019-05-11T23:10:30.244Z,70.78
2019-05-11T23:12:59.751Z,70.27
2019-05-11T23:15:29.173Z,69.14
2019-05-11T23:17:59.944Z,69.34
2019-05-11T23:20:30.186Z,70.22
2019-05-11T23:23:01.668Z,69.11
2019-05-11T23:25:31.265Z,69.06
2019-05-11T23:28:00.791Z,68.54
2019-05-11T23:30:30.257Z,68.83
2019-05-11T23:32:59.766Z,68.81
2019-05-11T23:35:29.644Z,69.22
2019-05-11T23:37:59.228Z,69.07
2019-05-11T23:40:28.636Z,69.21
2019-05-11T23:42:58.244Z,69.80
2019-05-11T23:45:28.177Z,68.97
2019-05-11T23:47:58.857Z,68.32
2019-05-11T23:50:28.471Z,69.53
2019-05-11T23:53:06.639Z,69.67
2019-05-11T23:55:29.766Z,69.74
2019-05-11T23:57:59.226Z,69.85
